Time;durP1;ratioP1;P1;durP2;ratioP2;P2;SDS_P1;SDS_P2;PMS_P1;PMS_P2;Temp;Humidity;BMP_temperature;BMP_pressure;BME280_temperature;BME280_humidity;BME280_pressure;Samples;Min_cycle;Max_cycle;Signal;HPM_P1;HPM_P2
2022/11/08 00:02:38;;;;;;;6.93;3.00;;;12.80;81.50;;;;;;5027582;28;21324;-66
2022/11/08 00:16:10;;;;;;;6.73;2.50;;;12.70;81.60;;;;;;5027522;28;20480;-68
2022/11/08 00:18:38;;;;;;;6.80;2.33;;;12.70;81.60;;;;;;5026596;28;20514;-67
2022/11/08 00:21:06;;;;;;;26.17;3.60;;;12.70;81.60;;;;;;5027389;28;20456;-66
2022/11/08 00:23:34;;;;;;;9.03;2.67;;;12.70;81.60;;;;;;5026603;28;21105;-66
2022/11/08 00:26:02;;;;;;;5.97;2.77;;;12.80;81.60;;;;;;5024878;28;20553;-67
2022/11/08 00:28:29;;;;;;;6.47;3.17;;;12.70;81.40;;;;;;5031022;28;20533;-66
2022/11/08 00:30:57;;;;;;;5.00;2.30;;;12.80;81.40;;;;;;5020299;28;20584;-66
2022/11/08 00:33:27;;;;;;;7.67;2.67;;;12.70;81.40;;;;;;5025015;28;20506;-66
2022/11/08 00:35:58;;;;;;;7.10;2.67;;;12.70;81.30;;;;;;5027746;28;20472;-66
2022/11/08 00:38:26;;;;;;;6.97;2.97;;;12.70;81.30;;;;;;5025538;28;20869;-65
2022/11/08 00:40:54;;;;;;;6.30;2.90;;;12.70;81.30;;;;;;5026007;28;20463;-66
2022/11/08 00:43:22;;;;;;;8.67;2.83;;;12.60;81.40;;;;;;5026186;28;20475;-68
2022/11/08 00:45:51;;;;;;;5.50;2.60;;;12.60;81.40;;;;;;5026130;28;20499;-66
2022/11/08 00:48:18;;;;;;;11.73;3.40;;;12.60;81.40;;;;;;5023172;28;20841;-68
2022/11/08 00:50:48;;;;;;;6.10;3.10;;;12.70;81.40;;;;;;5022452;28;20468;-67
2022/11/08 00:53:16;;;;;;;5.90;2.27;;;12.70;81.30;;;;;;5024701;28;20466;-66
2022/11/08 00:55:44;;;;;;;7.10;2.70;;;12.60;81.30;;;;;;5024823;28;20478;-67
2022/11/08 00:58:12;;;;;;;6.80;2.33;;;12.60;81.30;;;;;;5026901;28;20452;-67
2022/11/08 01:00:40;;;;;;;8.60;2.60;;;12.60;81.30;;;;;;5033471;28;20459;-67
2022/11/08 01:03:20;;;;;;;8.17;2.67;;;12.60;81.20;;;;;;5026862;28;20517;-67
2022/11/08 01:05:52;;;;;;;6.67;2.60;;;12.60;81.30;;;;;;5022904;28;20478;-67
2022/11/08 01:08:21;;;;;;;11.70;3.03;;;12.60;81.30;;;;;;5029648;28;20467;-66
2022/11/08 01:10:51;;;;;;;7.17;2.80;;;12.60;81.40;;;;;;5026505;28;20455;-67
2022/11/08 01:13:19;;;;;;;6.50;2.87;;;12.60;81.30;;;;;;5025083;28;20469;-67
2022/11/08 01:15:48;;;;;;;7.80;2.40;;;12.60;81.20;;;;;;5027164;28;21260;-67
2022/11/08 01:18:17;;;;;;;9.73;3.40;;;12.50;81.20;;;;;;5025295;28;20448;-67
2022/11/08 01:20:48;;;;;;;10.17;2.43;;;12.50;81.20;;;;;;5027316;28;20452;-67
2022/11/08 01:23:19;;;;;;;6.43;2.10;;;12.50;81.20;;;;;;5024858;28;21132;-68
2022/11/08 01:25:48;;;;;;;14.33;2.90;;;12.50;81.20;;;;;;5028027;28;20476;-66
2022/11/08 01:28:17;;;;;;;8.10;2.20;;;12.50;81.10;;;;;;5032750;28;21150;-66
2022/11/08 01:30:46;;;;;;;8.40;3.17;;;12.50;81.10;;;;;;5021578;28;20452;-66
2022/11/08 01:33:15;;;;;;;7.87;3.53;;;12.50;81.10;;;;;;5027130;28;20442;-66
2022/11/08 01:35:44;;;;;;;10.80;4.80;;;12.50;81.00;;;;;;5025743;28;20464;-66
2022/11/08 01:38:12;;;;;;;19.07;7.33;;;12.50;80.90;;;;;;5027386;28;20521;-66
2022/11/08 01:40:46;;;;;;;17.93;7.50;;;12.40;80.90;;;;;;5017252;28;20895;-66
2022/11/08 01:43:35;;;;;;;15.77;6.90;;;12.40;80.80;;;;;;5018193;28;20469;-68
2022/11/08 01:46:38;;;;;;;10.10;4.60;;;12.30;80.70;;;;;;5025817;28;21052;-68
2022/11/08 01:49:43;;;;;;;26.57;10.20;;;12.20;80.50;;;;;;5025473;28;20517;-66
2022/11/08 01:52:19;;;;;;;10.63;4.90;;;12.10;80.50;;;;;;5022857;28;20467;-66
2022/11/08 01:54:55;;;;;;;8.83;4.40;;;12.00;80.70;;;;;;5023713;28;20556;-66
2022/11/08 01:57:31;;;;;;;8.93;4.47;;;12.00;80.80;;;;;;5030097;28;20454;-66
2022/11/08 02:00:02;;;;;;;8.07;3.00;;;11.90;80.70;;;;;;5027471;28;20470;-66
2022/11/08 02:02:36;;;;;;;11.27;3.30;;;11.90;80.80;;;;;;5028168;28;20838;-67
2022/11/08 02:05:23;;;;;;;6.83;3.00;;;11.90;80.90;;;;;;5016126;28;20480;-67
2022/11/08 02:07:56;;;;;;;12.60;4.30;;;11.90;80.80;;;;;;5026547;28;20484;-67
2022/11/08 02:10:29;;;;;;;11.60;4.17;;;11.90;80.70;;;;;;5025948;28;20465;-66
2022/11/08 02:13:00;;;;;;;9.60;3.70;;;11.80;80.70;;;;;;5027630;28;20585;-67
2022/11/08 02:15:32;;;;;;;11.40;3.87;;;11.80;80.60;;;;;;5025583;28;21012;-67
2022/11/08 02:18:00;;;;;;;9.97;3.33;;;11.70;80.60;;;;;;5025995;28;20937;-68
2022/11/08 02:20:28;;;;;;;8.43;3.20;;;11.70;80.60;;;;;;5026513;28;20475;-68
2022/11/08 02:23:01;;;;;;;11.33;3.60;;;11.70;80.50;;;;;;5024551;28;20807;-67
2022/11/08 02:25:31;;;;;;;7.90;3.13;;;11.60;80.50;;;;;;5029970;28;20472;-68
2022/11/08 02:27:59;;;;;;;8.50;3.10;;;11.60;80.50;;;;;;5027358;28;20479;-67
2022/11/08 02:30:32;;;;;;;6.30;3.00;;;11.50;80.50;;;;;;5032154;28;20484;-66
2022/11/08 02:33:00;;;;;;;12.07;3.07;;;11.50;80.50;;;;;;5033448;28;20447;-65
2022/11/08 02:35:29;;;;;;;15.60;7.37;;;11.40;80.50;;;;;;5037475;28;20479;-67
2022/11/08 02:37:56;;;;;;;15.30;7.37;;;11.40;80.50;;;;;;5028821;28;20444;-66
2022/11/08 02:40:24;;;;;;;13.90;5.23;;;11.30;80.50;;;;;;5030978;28;20460;-66
2022/11/08 02:42:54;;;;;;;12.13;5.57;;;11.30;80.50;;;;;;5027341;28;20877;-66
2022/11/08 02:45:22;;;;;;;12.10;5.57;;;11.30;80.60;;;;;;5034351;28;20483;-66
2022/11/08 02:47:50;;;;;;;12.60;6.60;;;11.20;80.50;;;;;;5029209;28;20494;-65
2022/11/08 02:50:18;;;;;;;9.90;4.17;;;11.20;80.50;;;;;;5032872;28;20488;-66
2022/11/08 02:52:45;;;;;;;11.53;3.50;;;11.20;80.40;;;;;;5037326;28;20452;-68
2022/11/08 02:55:13;;;;;;;8.87;3.60;;;11.10;80.30;;;;;;5027149;28;20504;-67
2022/11/08 02:57:41;;;;;;;10.70;4.33;;;11.10;80.30;;;;;;5025938;28;20507;-67
2022/11/08 03:00:13;;;;;;;9.20;3.70;;;11.00;80.20;;;;;;5028382;28;20884;-66
2022/11/08 03:02:41;;;;;;;8.97;4.10;;;11.00;80.30;;;;;;5034307;28;20485;-67
2022/11/08 03:05:09;;;;;;;9.30;4.20;;;11.00;80.40;;;;;;5034916;28;20483;-66
2022/11/08 03:07:37;;;;;;;10.33;4.00;;;10.90;80.40;;;;;;5026251;28;20488;-67
2022/11/08 03:10:06;;;;;;;11.30;4.97;;;10.90;80.40;;;;;;5027735;28;20455;-66
2022/11/08 03:12:34;;;;;;;9.97;3.53;;;10.90;80.30;;;;;;5027274;28;20456;-68
2022/11/08 03:15:02;;;;;;;8.13;3.37;;;10.80;80.30;;;;;;5026140;28;21313;-66
2022/11/08 03:17:32;;;;;;;6.80;2.77;;;10.80;80.40;;;;;;5025412;28;20440;-68
2022/11/08 03:20:00;;;;;;;6.33;3.30;;;10.80;80.40;;;;;;5028743;28;20496;-66
2022/11/08 03:22:28;;;;;;;9.20;3.37;;;10.80;80.50;;;;;;5023330;28;20455;-66
2022/11/08 03:24:56;;;;;;;11.17;3.93;;;10.80;80.50;;;;;;5023296;28;20464;-66
2022/11/08 03:27:24;;;;;;;13.50;6.43;;;10.70;80.50;;;;;;5025763;28;20514;-66
2022/11/08 03:29:52;;;;;;;7.20;3.70;;;10.70;80.40;;;;;;5027745;28;20447;-66
2022/11/08 03:32:20;;;;;;;5.80;2.83;;;10.70;80.30;;;;;;5028801;28;20455;-66
2022/11/08 03:34:50;;;;;;;6.20;3.30;;;10.60;80.30;;;;;;5022626;28;20502;-67
2022/11/08 03:37:18;;;;;;;9.17;4.77;;;10.60;80.40;;;;;;5024947;28;20510;-66
2022/11/08 03:39:46;;;;;;;15.37;8.00;;;10.60;80.50;;;;;;5025617;28;20460;-66
2022/11/08 03:42:14;;;;;;;17.80;8.47;;;10.50;80.40;;;;;;5025870;28;20472;-66
2022/11/08 03:44:42;;;;;;;14.47;6.93;;;10.50;80.30;;;;;;5027002;28;20894;-67
2022/11/08 03:47:10;;;;;;;13.17;6.20;;;10.40;80.30;;;;;;5023437;28;20483;-67
2022/11/08 03:49:38;;;;;;;14.23;6.90;;;10.40;80.30;;;;;;5029628;28;20934;-67
2022/11/08 03:52:07;;;;;;;14.30;6.90;;;10.40;80.30;;;;;;5031541;28;20463;-67
2022/11/08 03:54:35;;;;;;;14.83;6.60;;;10.40;80.30;;;;;;5028758;28;20466;-67
2022/11/08 03:57:03;;;;;;;10.93;5.57;;;10.40;80.30;;;;;;5030804;28;20462;-67
2022/11/08 03:59:31;;;;;;;12.73;6.10;;;10.40;80.20;;;;;;5027177;28;20456;-67
2022/11/08 04:01:59;;;;;;;17.40;6.53;;;10.30;80.10;;;;;;5023556;28;20493;-67
2022/11/08 04:04:27;;;;;;;11.07;5.33;;;10.20;80.10;;;;;;5025317;28;20957;-67
2022/11/08 04:06:55;;;;;;;10.80;3.93;;;10.20;80.20;;;;;;5025977;28;20896;-67
2022/11/08 04:09:24;;;;;;;6.83;3.67;;;10.20;80.20;;;;;;5028696;28;20448;-67
2022/11/08 04:21:17;;;;;;;8.90;4.77;;;10.10;80.10;;;;;;5024483;28;20480;-66
2022/11/08 04:22:57;;;;;;;9.17;4.40;;;10.10;80.00;;;;;;5028314;28;20451;-67
2022/11/08 04:25:26;;;;;;;9.27;4.50;;;10.00;80.00;;;;;;5027328;28;20472;-67
2022/11/08 04:28:01;;;;;;;10.57;5.60;;;10.00;80.00;;;;;;5021565;28;20486;-67
2022/11/08 04:30:29;;;;;;;10.73;4.30;;;10.00;80.00;;;;;;5026644;28;20984;-67
2022/11/08 04:33:00;;;;;;;8.23;3.90;;;9.90;80.00;;;;;;5024867;28;20453;-67
2022/11/08 04:35:28;;;;;;;7.47;3.90;;;9.90;80.10;;;;;;5026038;28;20480;-67
2022/11/08 04:37:59;;;;;;;12.30;4.70;;;9.90;80.10;;;;;;5028198;28;20444;-67
2022/11/08 04:40:30;;;;;;;15.80;4.90;;;9.90;79.80;;;;;;5025712;28;21273;-67
2022/11/08 04:42:58;;;;;;;10.33;4.40;;;9.80;79.70;;;;;;5024948;28;20992;-67
2022/11/08 04:45:26;;;;;;;6.80;3.20;;;9.70;79.70;;;;;;5025820;28;20573;-67
2022/11/08 04:47:54;;;;;;;6.40;3.00;;;9.70;79.80;;;;;;5018537;28;20543;-67
2022/11/08 04:50:22;;;;;;;6.83;3.60;;;9.70;79.80;;;;;;5026306;28;20455;-67
2022/11/08 04:52:52;;;;;;;7.33;3.50;;;9.70;79.90;;;;;;5025251;28;20520;-67
2022/11/08 04:55:20;;;;;;;7.57;3.37;;;9.70;79.90;;;;;;5024507;28;20510;-67
2022/11/08 04:57:50;;;;;;;7.47;3.60;;;9.70;79.80;;;;;;5024674;28;20464;-67
2022/11/08 05:00:18;;;;;;;6.17;2.90;;;9.70;79.70;;;;;;5026149;28;20506;-66
2022/11/08 05:02:46;;;;;;;8.10;3.90;;;9.70;79.70;;;;;;5027497;28;20467;-67
2022/11/08 05:05:14;;;;;;;8.33;5.10;;;9.60;79.70;;;;;;5028091;28;20928;-67
2022/11/08 05:07:42;;;;;;;11.70;6.00;;;9.70;79.70;;;;;;5025626;28;20538;-67
2022/11/08 05:10:10;;;;;;;9.70;4.30;;;9.60;79.70;;;;;;5029117;28;20463;-67
2022/11/08 05:12:38;;;;;;;13.73;5.73;;;9.60;79.70;;;;;;5031604;28;20988;-66
2022/11/08 05:15:09;;;;;;;12.00;5.07;;;9.60;79.70;;;;;;5026976;28;20484;-65
2022/11/08 05:17:37;;;;;;;9.63;5.07;;;9.60;79.60;;;;;;5027498;28;20533;-67
2022/11/08 05:25:39;;;;;;;7.20;4.00;;;9.60;79.50;;;;;;5029311;28;20475;-66
2022/11/08 05:28:07;;;;;;;7.77;3.67;;;9.60;79.50;;;;;;5027234;28;20476;-66
2022/11/08 05:30:37;;;;;;;7.47;4.23;;;9.50;79.50;;;;;;5027029;28;20452;-65
2022/11/08 05:33:05;;;;;;;10.00;4.30;;;9.50;79.50;;;;;;5025601;28;20456;-67
2022/11/08 05:35:33;;;;;;;10.87;4.70;;;9.50;79.60;;;;;;5024974;28;20596;-66
2022/11/08 05:38:01;;;;;;;9.60;4.20;;;9.60;79.60;;;;;;5025641;28;20506;-65
2022/11/08 05:40:29;;;;;;;9.10;4.43;;;9.60;79.50;;;;;;5022600;28;20953;-65
2022/11/08 05:43:00;;;;;;;12.27;6.03;;;9.50;79.30;;;;;;5027326;28;20471;-68
2022/11/08 05:45:28;;;;;;;9.93;5.20;;;9.50;79.50;;;;;;5024327;28;20279;-67
2022/11/08 05:48:02;;;;;;;13.13;5.07;;;9.40;79.50;;;;;;5025290;28;20999;-68
2022/11/08 05:50:31;;;;;;;12.13;5.90;;;9.50;79.70;;;;;;5024115;28;20987;-67
2022/11/08 05:53:05;;;;;;;11.37;5.13;;;9.50;79.70;;;;;;5027504;28;20463;-67
2022/11/08 05:55:33;;;;;;;10.93;5.67;;;9.50;79.70;;;;;;5027027;28;20483;-67
2022/11/08 05:58:01;;;;;;;10.93;4.50;;;9.50;79.60;;;;;;5013274;28;20459;-67
2022/11/08 06:00:29;;;;;;;8.17;4.60;;;9.50;79.50;;;;;;5024656;28;20513;-65
2022/11/08 06:02:58;;;;;;;12.00;5.30;;;9.50;79.50;;;;;;5024961;28;20467;-67
2022/11/08 06:05:36;;;;;;;7.60;3.97;;;9.50;79.60;;;;;;5028801;28;20467;-67
2022/11/08 06:08:04;;;;;;;9.80;4.50;;;9.50;79.60;;;;;;5027442;28;20480;-66
2022/11/08 06:10:32;;;;;;;7.57;3.67;;;9.50;79.60;;;;;;5025244;28;20451;-67
2022/11/08 06:13:00;;;;;;;6.37;3.23;;;9.50;79.50;;;;;;5026591;28;20468;-67
2022/11/08 06:15:28;;;;;;;7.00;3.10;;;9.40;79.50;;;;;;5026525;28;20497;-67
2022/11/08 06:18:01;;;;;;;6.97;3.50;;;9.40;79.50;;;;;;5028712;28;20455;-66
2022/11/08 06:20:30;;;;;;;5.70;3.40;;;9.40;79.50;;;;;;5026864;28;20485;-65
2022/11/08 06:22:58;;;;;;;5.70;2.83;;;9.40;79.50;;;;;;5024141;28;20456;-66
2022/11/08 06:25:26;;;;;;;9.33;3.50;;;9.40;79.50;;;;;;5024847;28;20526;-66
2022/11/08 06:27:54;;;;;;;6.57;3.47;;;9.40;79.50;;;;;;5024735;28;20456;-65
2022/11/08 06:30:22;;;;;;;7.87;3.60;;;9.30;79.50;;;;;;5025692;28;20973;-66
2022/11/08 06:32:50;;;;;;;7.27;3.63;;;9.30;79.60;;;;;;5029270;28;20471;-66
2022/11/08 06:35:19;;;;;;;7.77;3.50;;;9.30;79.50;;;;;;5025582;28;20480;-66
2022/11/08 06:37:47;;;;;;;7.43;3.40;;;9.30;79.50;;;;;;5025020;28;20455;-66
2022/11/08 06:40:15;;;;;;;6.40;2.90;;;9.30;79.50;;;;;;5023418;28;20456;-65
2022/11/08 06:42:43;;;;;;;6.17;3.30;;;9.30;79.40;;;;;;5028331;28;20460;-66
2022/11/08 06:45:11;;;;;;;6.10;3.50;;;9.30;79.40;;;;;;5031010;28;21046;-67
2022/11/08 06:47:39;;;;;;;6.57;4.00;;;9.20;79.30;;;;;;5028373;28;20517;-67
2022/11/08 06:50:07;;;;;;;6.97;3.33;;;9.20;79.30;;;;;;5021939;28;20480;-67
2022/11/08 06:52:37;;;;;;;9.57;3.57;;;9.20;79.30;;;;;;5024343;28;20461;-66
2022/11/08 06:55:05;;;;;;;8.90;3.60;;;9.20;79.30;;;;;;5026488;28;20476;-64
2022/11/08 06:57:33;;;;;;;10.03;3.40;;;9.10;79.30;;;;;;5028138;28;20464;-66
2022/11/08 07:00:01;;;;;;;6.23;3.80;;;9.10;79.20;;;;;;5025983;28;20465;-66
2022/11/08 07:02:29;;;;;;;6.60;3.83;;;9.10;79.10;;;;;;5024152;28;20463;-66
2022/11/08 07:04:57;;;;;;;6.20;3.97;;;9.00;79.00;;;;;;5023008;28;20459;-65
2022/11/08 07:07:25;;;;;;;7.83;4.43;;;9.00;79.00;;;;;;5023198;28;20462;-66
2022/11/08 07:09:54;;;;;;;10.30;5.30;;;9.00;79.10;;;;;;5019630;28;20486;-66
2022/11/08 07:12:29;;;;;;;7.57;4.70;;;9.00;79.20;;;;;;5025872;28;20460;-65
2022/11/08 07:14:57;;;;;;;7.03;3.80;;;9.00;79.20;;;;;;5030319;28;20452;-66
2022/11/08 07:17:25;;;;;;;8.40;4.40;;;9.00;79.20;;;;;;5020601;28;20455;-65
2022/11/08 07:19:53;;;;;;;8.37;4.30;;;9.00;79.20;;;;;;5022138;28;20455;-65
2022/11/08 07:22:21;;;;;;;10.52;3.75;;;9.00;79.30;;;;;;5029226;28;20458;-64
2022/11/08 07:24:49;;;;;;;8.37;4.30;;;9.00;79.40;;;;;;5029172;28;20202;-65
2022/11/08 07:27:18;;;;;;;9.40;4.30;;;9.00;79.30;;;;;;5032426;28;20464;-66
2022/11/08 07:29:46;;;;;;;14.27;7.60;;;9.10;79.40;;;;;;5028062;28;20475;-64
2022/11/08 07:32:14;;;;;;;13.50;7.33;;;9.10;79.40;;;;;;5029797;28;20204;-65
2022/11/08 07:34:42;;;;;;;18.55;10.00;;;9.10;79.50;;;;;;5033055;28;20470;-64
2022/11/08 07:37:10;;;;;;;43.17;26.50;;;9.20;79.60;;;;;;5030521;28;20267;-64
2022/11/08 07:39:38;;;;;;;42.60;24.80;;;9.30;79.70;;;;;;5030361;28;20448;-64
2022/11/08 07:42:06;;;;;;;35.47;19.90;;;9.30;79.80;;;;;;5026444;28;20463;-65
2022/11/08 07:44:36;;;;;;;36.40;19.87;;;9.40;79.80;;;;;;5026948;28;20224;-66
2022/11/08 07:47:04;;;;;;;31.37;17.10;;;9.40;79.80;;;;;;5027992;28;20562;-66
2022/11/08 07:49:32;;;;;;;21.57;13.80;;;9.50;79.80;;;;;;5024084;28;20522;-66
2022/11/08 07:52:00;;;;;;;19.50;10.43;;;9.50;79.80;;;;;;5030856;28;21187;-64
2022/11/08 07:54:28;;;;;;;8.73;5.30;;;9.60;79.80;;;;;;5033449;28;20451;-66
2022/11/08 07:56:56;;;;;;;6.90;4.60;;;9.60;79.90;;;;;;5022295;28;20475;-65
2022/11/08 07:59:24;;;;;;;9.40;4.60;;;9.60;79.90;;;;;;5024248;28;21048;-67
2022/11/08 08:01:53;;;;;;;8.03;4.20;;;9.70;80.00;;;;;;5027960;28;20465;-64
2022/11/08 08:04:21;;;;;;;8.50;3.83;;;9.80;80.10;;;;;;5029028;28;20957;-64
2022/11/08 08:06:49;;;;;;;10.70;4.87;;;9.80;80.20;;;;;;5028773;28;20482;-64
2022/11/08 08:09:17;;;;;;;9.37;3.70;;;9.90;80.30;;;;;;5022866;28;21283;-66
2022/11/08 08:11:45;;;;;;;7.63;4.23;;;9.90;80.40;;;;;;5026895;28;20476;-66
2022/11/08 08:14:13;;;;;;;7.17;4.10;;;10.00;80.40;;;;;;5026190;28;20510;-66
2022/11/08 08:16:41;;;;;;;7.87;3.90;;;10.00;80.50;;;;;;5026426;28;20551;-66
2022/11/08 08:19:10;;;;;;;7.47;3.90;;;10.10;80.50;;;;;;5031400;28;20505;-67
2022/11/08 08:21:38;;;;;;;9.83;4.10;;;10.10;80.60;;;;;;5023457;28;20451;-66
2022/11/08 08:24:07;;;;;;;7.90;3.60;;;10.20;80.50;;;;;;5024985;28;20453;-66
2022/11/08 08:26:35;;;;;;;7.83;4.30;;;10.20;80.60;;;;;;5022341;28;20894;-66
2022/11/08 08:29:03;;;;;;;8.03;4.20;;;10.20;80.50;;;;;;5024338;28;20460;-65
2022/11/08 08:31:31;;;;;;;9.27;4.53;;;10.20;80.60;;;;;;5028315;28;20464;-65
2022/11/08 08:33:58;;;;;;;10.17;4.60;;;10.20;80.70;;;;;;5030057;28;20456;-65
2022/11/08 08:36:28;;;;;;;9.43;4.67;;;10.30;80.70;;;;;;5022262;28;20491;-67
2022/11/08 08:38:56;;;;;;;13.03;5.10;;;10.30;80.80;;;;;;5024651;28;20876;-64
2022/11/08 08:41:23;;;;;;;12.33;4.93;;;10.30;80.80;;;;;;5025340;28;20513;-66
2022/11/08 08:43:51;;;;;;;9.23;4.47;;;10.40;80.80;;;;;;5024869;28;20977;-64
2022/11/08 08:46:19;;;;;;;10.03;4.40;;;10.40;80.90;;;;;;5029233;28;20491;-65
2022/11/08 08:48:48;;;;;;;8.60;4.37;;;10.40;80.90;;;;;;5020639;28;20449;-65
2022/11/08 08:51:16;;;;;;;7.70;4.50;;;10.50;81.00;;;;;;5027609;28;20872;-65
2022/11/08 08:53:45;;;;;;;7.40;4.60;;;10.50;80.90;;;;;;5018597;28;20455;-66
2022/11/08 08:56:13;;;;;;;8.33;4.70;;;10.50;80.90;;;;;;5028413;28;20484;-67
2022/11/08 08:58:41;;;;;;;9.30;4.60;;;10.50;81.10;;;;;;5016592;28;20739;-67
2022/11/08 09:01:10;;;;;;;8.97;5.00;;;10.50;81.10;;;;;;5026567;28;20639;-67
2022/11/08 09:03:58;;;;;;;8.40;4.50;;;10.50;81.20;;;;;;5021919;28;20464;-66
2022/11/08 09:06:26;;;;;;;13.50;4.50;;;10.60;81.30;;;;;;5028131;28;20526;-66
2022/11/08 09:08:55;;;;;;;8.00;4.90;;;10.60;81.30;;;;;;5026238;28;20456;-66
2022/11/08 09:11:23;;;;;;;10.63;5.57;;;10.70;81.40;;;;;;5026504;28;20484;-67
2022/11/08 09:13:51;;;;;;;10.37;5.20;;;10.70;81.40;;;;;;5023721;28;20485;-66
2022/11/08 09:16:19;;;;;;;10.63;5.17;;;10.80;81.50;;;;;;5025451;28;21083;-66
2022/11/08 09:18:47;;;;;;;7.63;4.80;;;10.80;81.40;;;;;;5024470;28;20513;-66
2022/11/08 09:21:15;;;;;;;7.93;4.47;;;10.90;81.60;;;;;;5026716;28;20539;-67
2022/11/08 09:23:43;;;;;;;8.53;4.73;;;10.90;81.60;;;;;;5028160;28;20496;-65
2022/11/08 09:26:12;;;;;;;7.97;4.60;;;11.00;81.70;;;;;;5027768;28;20479;-66
2022/11/08 09:28:40;;;;;;;6.77;4.23;;;11.00;81.80;;;;;;5025949;28;20985;-66
2022/11/08 09:31:11;;;;;;;6.80;4.10;;;11.10;81.60;;;;;;5024313;28;20491;-66
2022/11/08 09:33:40;;;;;;;7.30;4.90;;;11.10;81.70;;;;;;5022433;28;20509;-66
2022/11/08 09:36:12;;;;;;;8.40;4.67;;;11.10;81.70;;;;;;5026976;28;20620;-67
2022/11/08 09:38:40;;;;;;;8.23;5.33;;;11.20;81.80;;;;;;5027419;28;20999;-65
2022/11/08 09:41:59;;;;;;;6.50;3.63;;;11.20;81.80;;;;;;5025161;28;20455;-67
2022/11/08 09:44:54;;;;;;;6.97;4.00;;;11.20;81.80;;;;;;5028165;28;21526;-66
2022/11/08 09:47:25;;;;;;;7.53;4.07;;;11.30;81.80;;;;;;5028386;28;20807;-66
2022/11/08 09:50:02;;;;;;;8.30;4.80;;;11.30;81.80;;;;;;5017075;28;20480;-64
2022/11/08 09:52:33;;;;;;;8.00;4.40;;;11.30;81.90;;;;;;5025760;28;20463;-67
2022/11/08 09:55:16;;;;;;;8.10;4.37;;;11.40;81.90;;;;;;5024173;28;20459;-67
2022/11/08 09:57:55;;;;;;;8.90;5.10;;;11.50;82.10;;;;;;5025281;28;20469;-67
2022/11/08 10:00:23;;;;;;;8.13;4.73;;;11.50;82.00;;;;;;5027453;28;20464;-67
2022/11/08 10:02:51;;;;;;;8.43;5.20;;;11.60;82.00;;;;;;5024195;28;20464;-67
2022/11/08 10:05:20;;;;;;;9.03;4.40;;;11.60;82.10;;;;;;5027329;28;20871;-67
2022/11/08 10:07:54;;;;;;;8.50;3.83;;;11.60;82.10;;;;;;5023320;28;20459;-67
2022/11/08 10:10:39;;;;;;;8.73;4.10;;;11.70;82.30;;;;;;5024142;28;20503;-66
2022/11/08 10:13:18;;;;;;;9.77;4.50;;;11.70;82.20;;;;;;5026860;28;20459;-65
2022/11/08 10:15:53;;;;;;;8.97;4.50;;;11.80;82.30;;;;;;5025519;28;20579;-67
2022/11/08 10:18:51;;;;;;;7.73;5.07;;;11.80;82.20;;;;;;5024791;28;20463;-65
2022/11/08 10:21:37;;;;;;;7.87;4.30;;;11.90;82.30;;;;;;5023033;28;20481;-67
2022/11/08 10:24:21;;;;;;;8.80;4.57;;;11.90;82.40;;;;;;5028456;28;20509;-67
2022/11/08 10:26:50;;;;;;;7.60;4.17;;;11.90;82.40;;;;;;5028802;28;20529;-67
2022/11/08 10:29:21;;;;;;;11.13;4.50;;;12.00;82.40;;;;;;5022492;28;20452;-67
2022/11/08 10:31:58;;;;;;;9.10;4.13;;;12.00;82.40;;;;;;5026570;28;20501;-67
2022/11/08 10:34:33;;;;;;;8.93;4.00;;;12.00;82.40;;;;;;5017641;28;20459;-68
2022/11/08 10:37:05;;;;;;;8.50;4.20;;;12.00;82.40;;;;;;5033665;28;21245;-67
2022/11/08 10:39:41;;;;;;;7.53;3.80;;;12.00;82.40;;;;;;5028102;28;21040;-65
2022/11/08 10:42:14;;;;;;;6.97;3.67;;;12.10;82.50;;;;;;5026820;28;20982;-66
2022/11/08 10:44:44;;;;;;;6.73;3.77;;;12.10;82.50;;;;;;5025929;28;20451;-66
2022/11/08 10:47:17;;;;;;;8.50;4.07;;;12.10;82.60;;;;;;5022280;28;21026;-67
2022/11/08 10:49:45;;;;;;;6.60;3.37;;;12.20;82.50;;;;;;5026413;28;20464;-66
2022/11/08 10:52:18;;;;;;;6.00;3.77;;;12.20;82.50;;;;;;5027837;28;20484;-67
2022/11/08 10:54:48;;;;;;;6.97;3.10;;;12.20;82.60;;;;;;5025122;28;20468;-68
2022/11/08 10:57:22;;;;;;;8.03;3.00;;;12.30;82.50;;;;;;5031000;28;20455;-67
2022/11/08 10:59:52;;;;;;;6.50;3.40;;;12.30;82.60;;;;;;5029364;28;20529;-67
2022/11/08 11:02:27;;;;;;;6.27;3.93;;;12.40;82.70;;;;;;5027397;28;20760;-68
2022/11/08 11:05:18;;;;;;;6.77;3.10;;;12.40;82.70;;;;;;5028753;28;20471;-67
2022/11/08 11:07:57;;;;;;;6.10;3.30;;;12.50;82.70;;;;;;5028882;28;20981;-68
2022/11/08 11:10:30;;;;;;;11.73;3.67;;;12.50;82.70;;;;;;5032551;28;20500;-66
2022/11/08 11:13:02;;;;;;;6.13;2.60;;;12.60;82.70;;;;;;5029603;28;20456;-66
2022/11/08 11:15:37;;;;;;;10.70;2.90;;;12.60;82.70;;;;;;5029537;28;20482;-67
2022/11/08 11:18:19;;;;;;;6.40;3.10;;;12.70;82.80;;;;;;5028766;28;20479;-66
2022/11/08 11:20:59;;;;;;;7.70;3.03;;;12.70;82.70;;;;;;5029017;28;20458;-66
2022/11/08 11:23:36;;;;;;;5.77;2.60;;;12.80;82.70;;;;;;5029275;28;20513;-67
2022/11/08 11:26:06;;;;;;;3.77;1.60;;;12.80;82.50;;;;;;5029187;28;21292;-66
2022/11/08 11:28:35;;;;;;;4.70;1.70;;;12.90;82.50;;;;;;5031095;28;20452;-66
2022/11/08 11:31:16;;;;;;;7.13;2.13;;;13.00;82.40;;;;;;5031001;28;20484;-66
2022/11/08 11:33:46;;;;;;;5.40;1.60;;;13.00;82.20;;;;;;5041073;28;20463;-67
2022/11/08 11:36:19;;;;;;;5.07;1.77;;;13.10;82.10;;;;;;5031701;28;20523;-67
2022/11/08 11:38:55;;;;;;;4.40;2.27;;;13.10;81.90;;;;;;5026047;28;21257;-66
2022/11/08 11:41:29;;;;;;;5.93;2.10;;;13.20;81.80;;;;;;5022718;28;21350;-67
2022/11/08 11:44:04;;;;;;;4.70;1.93;;;13.20;81.80;;;;;;5024024;28;20452;-67
2022/11/08 11:46:45;;;;;;;5.87;2.10;;;13.30;81.70;;;;;;5032359;28;20483;-67
2022/11/08 11:49:19;;;;;;;4.47;1.43;;;13.40;81.50;;;;;;5029716;28;21005;-66
2022/11/08 11:51:51;;;;;;;6.03;1.90;;;13.40;81.40;;;;;;5027897;28;20891;-66
2022/11/08 11:54:19;;;;;;;4.80;1.60;;;13.50;81.30;;;;;;5026800;28;20464;-67
2022/11/08 11:56:55;;;;;;;4.13;1.50;;;13.50;80.90;;;;;;5026669;28;20479;-67
2022/11/08 11:59:40;;;;;;;4.43;1.60;;;13.60;80.80;;;;;;5027829;28;20478;-66
2022/11/08 12:02:41;;;;;;;5.30;1.50;;;13.70;80.40;;;;;;5031035;28;20520;-67
2022/11/08 12:05:27;;;;;;;4.97;2.23;;;13.70;80.20;;;;;;5026268;28;20529;-67
2022/11/08 12:08:07;;;;;;;4.13;1.40;;;13.70;80.10;;;;;;5025327;28;20504;-68
2022/11/08 12:10:50;;;;;;;3.83;1.47;;;13.70;79.90;;;;;;5030373;28;20462;-65
2022/11/08 12:13:25;;;;;;;4.43;1.67;;;13.70;79.80;;;;;;5028265;28;20931;-66
2022/11/08 12:16:00;;;;;;;4.97;1.70;;;13.70;79.70;;;;;;5029101;28;20467;-66
2022/11/08 12:18:42;;;;;;;4.87;1.77;;;13.70;79.50;;;;;;5018468;28;20962;-66
2022/11/08 12:21:13;;;;;;;3.77;1.37;;;13.70;79.40;;;;;;5023901;28;20446;-67
2022/11/08 12:24:08;;;;;;;4.53;1.70;;;13.80;79.20;;;;;;5023287;28;20463;-67
2022/11/08 12:26:44;;;;;;;7.57;1.97;;;13.80;79.10;;;;;;5031537;28;20477;-67
2022/11/08 12:29:24;;;;;;;4.00;1.57;;;13.80;79.00;;;;;;5034190;28;20547;-67
2022/11/08 12:32:04;;;;;;;4.00;1.47;;;13.80;78.80;;;;;;5022456;28;20488;-67
2022/11/08 12:34:44;;;;;;;7.43;1.53;;;13.90;78.70;;;;;;5023022;28;20472;-67
2022/11/08 12:37:25;;;;;;;3.80;1.40;;;13.90;78.60;;;;;;5027577;28;21003;-67
2022/11/08 12:39:59;;;;;;;4.07;1.57;;;14.00;78.40;;;;;;5027012;28;20463;-66
2022/11/08 12:42:47;;;;;;;4.90;1.80;;;14.10;78.10;;;;;;5027791;28;20976;-67
2022/11/08 12:45:44;;;;;;;5.80;1.67;;;14.20;78.10;;;;;;5027528;28;21066;-67
2022/11/08 12:48:26;;;;;;;5.30;1.30;;;14.20;77.80;;;;;;5025409;28;20460;-67
2022/11/08 12:51:05;;;;;;;5.83;1.70;;;14.30;77.40;;;;;;5029180;28;20454;-66
2022/11/08 12:53:48;;;;;;;4.10;1.30;;;14.40;77.20;;;;;;5026685;28;20504;-68
2022/11/08 12:56:21;;;;;;;3.60;1.13;;;14.40;76.90;;;;;;5028141;28;20489;-67
2022/11/08 12:58:51;;;;;;;8.10;1.60;;;14.50;76.80;;;;;;5024194;28;20460;-67
2022/11/08 13:01:21;;;;;;;4.80;1.20;;;14.50;76.60;;;;;;5023880;28;20970;-67
2022/11/08 13:04:36;;;;;;;7.80;1.30;;;14.50;76.50;;;;;;5020600;28;20456;-67
2022/11/08 13:07:13;;;;;;;4.77;1.87;;;14.50;76.00;;;;;;4959244;28;20497;-67
2022/11/08 13:09:47;;;;;;;4.27;1.47;;;14.50;75.90;;;;;;5016973;28;20507;-67
2022/11/08 13:12:27;;;;;;;4.43;1.40;;;14.60;76.00;;;;;;5024171;28;20482;-67
2022/11/08 13:14:56;;;;;;;4.97;1.60;;;14.60;75.90;;;;;;5026206;28;21035;-67
2022/11/08 13:17:25;;;;;;;4.20;1.47;;;14.60;75.90;;;;;;5026168;28;20464;-68
2022/11/08 13:19:59;;;;;;;6.30;1.60;;;14.60;75.80;;;;;;5026380;28;20455;-67
2022/11/08 13:22:58;;;;;;;4.57;1.90;;;14.60;75.70;;;;;;5015592;28;20448;-65
2022/11/08 13:25:35;;;;;;;6.17;1.67;;;14.70;75.40;;;;;;4996691;28;20479;-66
2022/11/08 13:28:37;;;;;;;3.90;1.50;;;14.70;75.30;;;;;;5006127;28;21292;-67
2022/11/08 13:31:31;;;;;;;4.70;1.30;;;14.70;75.20;;;;;;5006492;28;20475;-66
2022/11/08 13:34:26;;;;;;;5.30;1.40;;;14.80;75.00;;;;;;5007784;28;20460;-68
2022/11/08 13:37:12;;;;;;;6.67;1.47;;;14.80;74.90;;;;;;5006328;28;21307;-68